createdAt,value
2022-12-22T00:01:51.279Z,3.98
2022-12-22T00:04:36.494Z,3.90
2022-12-22T00:07:21.528Z,3.92
2022-12-22T00:10:06.472Z,3.92
2022-12-22T00:12:51.337Z,3.87
2022-12-22T00:15:36.278Z,3.85
2022-12-22T00:18:21.107Z,3.80
2022-12-22T00:21:06.052Z,3.80
2022-12-22T00:23:50.990Z,3.74
2022-12-22T00:26:35.997Z,3.73
2022-12-22T00:29:20.955Z,3.75
2022-12-22T00:32:05.828Z,3.64
2022-12-22T00:34:50.841Z,3.66
2022-12-22T00:37:35.658Z,3.66
2022-12-22T00:40:20.568Z,3.63
2022-12-22T00:43:05.533Z,3.65
2022-12-22T00:45:50.599Z,3.68
2022-12-22T00:48:35.802Z,3.61
2022-12-22T00:51:20.757Z,3.68
2022-12-22T00:54:05.765Z,3.64
2022-12-22T00:56:50.569Z,3.59
2022-12-22T00:59:35.603Z,3.59
2022-12-22T01:02:20.715Z,3.60
2022-12-22T01:05:05.772Z,3.58
2022-12-22T01:07:50.596Z,3.54
2022-12-22T01:10:35.650Z,3.58
2022-12-22T01:13:20.644Z,3.62
2022-12-22T01:16:05.641Z,3.65
2022-12-22T01:18:50.652Z,3.73
2022-12-22T01:21:35.561Z,3.77
2022-12-22T01:24:20.554Z,3.76
2022-12-22T01:27:05.473Z,3.76
2022-12-22T01:29:50.522Z,3.75
2022-12-22T01:32:35.339Z,3.71
2022-12-22T01:35:20.284Z,3.72
2022-12-22T01:38:05.402Z,3.64
2022-12-22T01:40:50.412Z,3.66
2022-12-22T01:43:35.378Z,3.63
2022-12-22T01:46:20.634Z,3.71
2022-12-22T01:49:05.831Z,3.74
2022-12-22T01:51:50.746Z,3.78
2022-12-22T01:54:35.683Z,3.82
2022-12-22T01:57:20.465Z,3.82
2022-12-22T02:00:05.365Z,3.88
2022-12-22T02:02:50.556Z,3.89
2022-12-22T02:05:35.740Z,3.87
2022-12-22T02:08:20.737Z,3.94
2022-12-22T02:11:05.588Z,3.89
2022-12-22T02:13:50.506Z,3.90
2022-12-22T02:16:35.547Z,3.78
2022-12-22T02:19:20.823Z,3.79
2022-12-22T02:22:05.770Z,3.79
2022-12-22T02:24:50.644Z,3.86
2022-12-22T02:27:35.781Z,3.89
2022-12-22T02:30:20.629Z,3.93
2022-12-22T02:33:09.882Z,3.90
2022-12-22T02:35:55.529Z,3.91
2022-12-22T02:38:40.439Z,3.94
2022-12-22T02:41:25.680Z,3.92
2022-12-22T02:44:10.500Z,3.93
2022-12-22T02:46:55.404Z,3.91
2022-12-22T02:49:40.633Z,3.88
2022-12-22T02:52:25.547Z,3.86
2022-12-22T02:55:10.597Z,3.93
2022-12-22T02:57:55.592Z,3.88
2022-12-22T03:00:40.773Z,3.93
2022-12-22T03:03:26.264Z,3.92
2022-12-22T03:06:11.460Z,3.92
2022-12-22T03:08:56.339Z,3.97
2022-12-22T03:11:41.272Z,3.97
2022-12-22T03:14:26.313Z,4.05
2022-12-22T03:17:11.166Z,3.99
2022-12-22T03:19:56.125Z,4.00
2022-12-22T03:22:41.028Z,4.02
2022-12-22T03:25:26.056Z,4.02
2022-12-22T03:27:52.517Z,4.03
2022-12-22T03:30:18.844Z,4.05
2022-12-22T03:32:45.176Z,4.03
2022-12-22T03:35:11.486Z,4.08
2022-12-22T03:37:37.837Z,4.09
2022-12-22T03:40:04.136Z,4.12
2022-12-22T03:42:49.359Z,4.14
2022-12-22T03:45:34.341Z,4.10
2022-12-22T03:48:00.661Z,4.18
2022-12-22T03:50:26.998Z,4.14
2022-12-22T03:52:53.309Z,4.12
2022-12-22T03:55:19.767Z,4.12
2022-12-22T03:57:46.073Z,4.20
2022-12-22T04:00:12.401Z,4.20
2022-12-22T04:02:38.833Z,4.22
2022-12-22T04:05:05.334Z,4.18
2022-12-22T04:07:31.650Z,4.24
2022-12-22T04:10:17.073Z,4.20
2022-12-22T04:12:55.447Z,4.24
2022-12-22T04:15:21.897Z,4.28
2022-12-22T04:17:48.195Z,4.21
2022-12-22T04:20:14.503Z,4.27
2022-12-22T04:22:40.810Z,4.28
2022-12-22T04:25:07.124Z,4.29
2022-12-22T04:27:33.468Z,4.31
2022-12-22T04:29:59.773Z,4.39
2022-12-22T04:32:26.094Z,4.29
2022-12-22T04:34:52.404Z,4.31
2022-12-22T04:37:18.714Z,4.30
2022-12-22T04:39:45.072Z,4.32
2022-12-22T04:42:11.370Z,4.26
2022-12-22T04:44:37.672Z,4.30
2022-12-22T04:47:03.986Z,4.31
2022-12-22T04:49:30.327Z,4.34
2022-12-22T04:51:56.688Z,4.29
2022-12-22T04:54:23.005Z,4.38
2022-12-22T04:56:49.301Z,4.29
2022-12-22T04:59:15.624Z,4.25
2022-12-22T05:01:42.016Z,4.35
2022-12-22T05:04:08.423Z,4.34
2022-12-22T05:06:34.752Z,4.29
2022-12-22T05:09:01.061Z,4.26
2022-12-22T05:11:27.364Z,4.24
2022-12-22T05:13:53.675Z,4.27
2022-12-22T05:16:20.040Z,4.24
2022-12-22T05:18:46.391Z,4.18
2022-12-22T05:21:12.714Z,4.23
2022-12-22T05:23:39.018Z,4.20
2022-12-22T05:26:05.328Z,4.26
2022-12-22T05:28:32.327Z,4.28
2022-12-22T05:30:58.739Z,4.28
2022-12-22T05:33:25.074Z,4.20
2022-12-22T05:35:51.385Z,4.23
2022-12-22T05:38:17.691Z,4.24
2022-12-22T05:40:44.045Z,4.25
2022-12-22T05:43:10.422Z,4.33
2022-12-22T05:45:36.776Z,4.33
2022-12-22T05:48:03.121Z,4.30
2022-12-22T05:50:29.531Z,4.25
2022-12-22T05:52:55.849Z,4.31
2022-12-22T05:55:22.253Z,4.33
2022-12-22T05:57:48.567Z,4.35
2022-12-22T06:00:14.886Z,4.33
2022-12-22T06:02:41.295Z,4.39
2022-12-22T06:05:07.707Z,4.45
2022-12-22T06:07:34.043Z,4.43
2022-12-22T06:10:00.731Z,4.53
2022-12-22T06:12:28.205Z,4.53
2022-12-22T06:14:54.532Z,4.52
2022-12-22T06:17:20.863Z,4.52
2022-12-22T06:19:47.175Z,4.54
2022-12-22T06:22:13.478Z,4.52
2022-12-22T06:24:39.773Z,4.56
2022-12-22T06:27:06.101Z,4.55
2022-12-22T06:29:32.396Z,4.55
2022-12-22T06:31:58.758Z,4.53
2022-12-22T06:34:25.066Z,4.58
2022-12-22T06:36:51.398Z,4.58
2022-12-22T06:39:17.740Z,4.63
2022-12-22T06:42:03.170Z,4.67
2022-12-22T06:44:29.463Z,4.66
2022-12-22T06:46:55.833Z,4.60
2022-12-22T06:49:22.181Z,4.62
2022-12-22T06:51:48.574Z,4.63
2022-12-22T06:54:14.908Z,4.65
2022-12-22T06:56:41.261Z,4.65
2022-12-22T06:59:07.627Z,4.71
2022-12-22T07:01:34.008Z,4.71
2022-12-22T07:04:00.476Z,4.68
2022-12-22T07:06:26.901Z,4.68
2022-12-22T07:08:53.219Z,4.64
2022-12-22T07:11:19.537Z,4.68
2022-12-22T07:13:45.949Z,4.58
2022-12-22T07:16:12.347Z,4.62
2022-12-22T07:18:38.692Z,4.58
2022-12-22T07:21:05.029Z,4.62
2022-12-22T07:23:31.374Z,4.64
2022-12-22T07:25:57.727Z,4.68
2022-12-22T07:28:24.033Z,4.71
2022-12-22T07:30:50.494Z,4.76
2022-12-22T07:33:16.847Z,4.76
2022-12-22T07:35:43.322Z,4.87
2022-12-22T07:38:09.657Z,4.96
2022-12-22T07:40:41.617Z,5.01
2022-12-22T07:43:08.345Z,5.05
2022-12-22T07:45:34.680Z,5.09
2022-12-22T07:48:01.055Z,5.19
2022-12-22T07:50:32.597Z,5.18
2022-12-22T07:52:58.936Z,5.21
2022-12-22T07:55:25.251Z,5.25
2022-12-22T07:57:51.586Z,5.25
2022-12-22T08:00:17.912Z,5.27
2022-12-22T08:02:46.126Z,5.26
2022-12-22T08:05:12.574Z,5.30
2022-12-22T08:07:39.050Z,5.27
2022-12-22T08:10:05.419Z,5.29
2022-12-22T08:12:32.844Z,5.28
2022-12-22T08:14:59.744Z,5.26
2022-12-22T08:17:26.075Z,5.32
2022-12-22T08:19:52.405Z,5.46
2022-12-22T08:22:18.816Z,5.40
2022-12-22T08:24:45.127Z,5.71
2022-12-22T08:27:11.441Z,6.00
2022-12-22T08:29:37.810Z,6.26
2022-12-22T08:32:04.199Z,6.49
2022-12-22T08:34:30.560Z,6.58
2022-12-22T08:36:56.893Z,6.67
2022-12-22T08:39:23.214Z,6.74
2022-12-22T08:41:52.784Z,6.74
2022-12-22T08:44:19.263Z,6.70
2022-12-22T08:46:45.625Z,6.79
2022-12-22T08:49:11.994Z,6.89
2022-12-22T08:51:38.324Z,7.06
2022-12-22T08:54:06.252Z,7.20
2022-12-22T08:59:07.992Z,7.90
2022-12-22T09:01:34.370Z,7.90
2022-12-22T09:04:00.810Z,7.41
2022-12-22T09:06:28.024Z,7.52
2022-12-22T09:08:56.324Z,7.41
2022-12-22T09:11:22.646Z,7.53
2022-12-22T09:13:48.990Z,7.66
2022-12-22T09:16:15.333Z,7.75
2022-12-22T09:18:41.674Z,7.73
2022-12-22T09:21:07.997Z,7.70
2022-12-22T09:23:34.309Z,7.89
2022-12-22T09:26:00.657Z,7.89
2022-12-22T09:28:27.022Z,8.15
2022-12-22T09:30:54.583Z,8.20
2022-12-22T09:33:20.956Z,8.32
2022-12-22T09:35:47.444Z,8.35
2022-12-22T09:38:13.756Z,8.43
2022-12-22T09:40:40.098Z,8.46
2022-12-22T09:43:06.456Z,8.37
2022-12-22T09:45:34.054Z,8.37
2022-12-22T09:48:00.464Z,8.39
2022-12-22T09:50:26.816Z,8.39
2022-12-22T09:52:53.517Z,8.32
2022-12-22T09:55:19.814Z,8.21
2022-12-22T09:57:46.152Z,8.31
2022-12-22T10:00:12.478Z,8.23
2022-12-22T10:02:38.832Z,8.33
2022-12-22T10:05:05.208Z,8.37
2022-12-22T10:07:31.786Z,8.40
2022-12-22T10:09:58.105Z,8.53
2022-12-22T10:12:24.467Z,8.62
2022-12-22T10:14:50.850Z,8.62
2022-12-22T10:17:17.237Z,8.63
2022-12-22T10:19:43.574Z,8.78
2022-12-22T10:22:09.900Z,8.83
2022-12-22T10:24:36.229Z,8.86
2022-12-22T10:27:04.467Z,8.88
2022-12-22T10:29:30.816Z,8.87
2022-12-22T10:31:57.213Z,8.85
2022-12-22T10:34:23.545Z,8.83
2022-12-22T10:36:49.880Z,8.81
2022-12-22T10:39:16.255Z,8.71
2022-12-22T10:41:42.563Z,8.70
2022-12-22T10:44:09.156Z,8.56
2022-12-22T10:46:35.711Z,8.61
2022-12-22T10:49:02.120Z,8.60
2022-12-22T10:51:28.473Z,8.59
2022-12-22T10:53:54.784Z,8.67
2022-12-22T10:56:21.113Z,8.60
2022-12-22T10:58:47.458Z,8.51
2022-12-22T11:01:13.951Z,8.50
2022-12-22T11:03:40.433Z,8.51
2022-12-22T11:06:06.792Z,8.51
2022-12-22T11:08:33.111Z,8.54
2022-12-22T11:10:59.430Z,8.54
2022-12-22T11:13:25.770Z,8.58
2022-12-22T11:15:52.168Z,8.68
2022-12-22T11:18:18.499Z,8.67
2022-12-22T11:20:44.836Z,8.70
2022-12-22T11:23:11.184Z,8.81
2022-12-22T11:25:37.497Z,8.81
2022-12-22T11:28:03.844Z,8.93
2022-12-22T11:30:30.277Z,9.00
2022-12-22T11:32:56.641Z,8.98
2022-12-22T11:35:23.050Z,9.11
2022-12-22T11:37:49.476Z,9.00
2022-12-22T11:40:15.918Z,8.93
2022-12-22T11:42:42.277Z,9.04
2022-12-22T11:45:08.613Z,9.04
2022-12-22T11:47:34.915Z,9.06
2022-12-22T11:50:57.319Z,9.04
2022-12-22T11:52:47.796Z,9.00
2022-12-22T11:55:14.140Z,9.07
2022-12-22T11:57:40.593Z,9.03
2022-12-22T12:00:07.292Z,9.08
2022-12-22T12:02:33.636Z,9.13
2022-12-22T12:05:00.368Z,9.14
2022-12-22T12:07:26.877Z,9.08
2022-12-22T12:09:53.304Z,9.09
2022-12-22T12:12:19.630Z,9.13
2022-12-22T12:14:45.989Z,8.99
2022-12-22T12:17:12.339Z,9.04
2022-12-22T12:19:40.203Z,8.98
2022-12-22T12:22:06.627Z,9.01
2022-12-22T12:24:33.021Z,9.06
2022-12-22T12:26:59.361Z,9.08
2022-12-22T12:29:25.713Z,9.05
2022-12-22T12:31:52.129Z,9.09
2022-12-22T12:34:18.548Z,9.20
2022-12-22T12:36:45.003Z,9.23
2022-12-22T12:39:11.340Z,9.28
2022-12-22T12:41:37.656Z,9.51
2022-12-22T12:44:03.996Z,9.61
2022-12-22T12:46:30.391Z,9.74
2022-12-22T12:48:56.725Z,9.90
2022-12-22T12:51:23.172Z,10.13
2022-12-22T12:53:49.499Z,10.63
2022-12-22T12:56:15.920Z,10.91
2022-12-22T12:58:43.494Z,11.63
2022-12-22T13:01:10.030Z,11.87
2022-12-22T13:04:02.528Z,12.03
2022-12-22T13:06:22.712Z,12.11
2022-12-22T13:08:51.008Z,12.27
2022-12-22T13:11:37.843Z,12.03
2022-12-22T13:14:03.840Z,12.01
2022-12-22T13:16:30.580Z,11.90
2022-12-22T13:19:00.373Z,11.81
2022-12-22T13:26:59.589Z,11.83
2022-12-22T13:29:25.912Z,11.85
2022-12-22T13:30:51.055Z,12.01
2022-12-22T13:31:52.268Z,11.77
2022-12-22T13:34:18.625Z,11.81
2022-12-22T13:36:44.963Z,11.82
2022-12-22T13:39:11.340Z,11.87
2022-12-22T13:41:37.722Z,11.69
2022-12-22T13:44:04.221Z,11.70
2022-12-22T13:46:30.605Z,11.82
2022-12-22T13:48:57.047Z,11.68
2022-12-22T13:51:23.499Z,11.76
2022-12-22T13:54:07.653Z,11.73
2022-12-22T13:56:35.217Z,11.71
2022-12-22T13:59:02.127Z,11.83
2022-12-22T14:01:28.540Z,11.69
2022-12-22T14:04:00.787Z,11.54
2022-12-22T14:06:28.427Z,11.50
2022-12-22T14:08:54.901Z,11.65
2022-12-22T14:11:21.229Z,11.60
2022-12-22T14:13:47.703Z,11.61
2022-12-22T14:16:14.085Z,11.45
2022-12-22T14:18:40.472Z,11.58
2022-12-22T14:21:07.456Z,11.46
2022-12-22T14:23:33.762Z,11.40
2022-12-22T14:26:01.869Z,11.41
2022-12-22T14:28:28.202Z,11.31
2022-12-22T14:30:54.565Z,11.34
2022-12-22T14:33:21.026Z,11.33
2022-12-22T14:35:47.361Z,11.28
2022-12-22T14:38:13.743Z,11.22
2022-12-22T14:40:40.089Z,11.16
2022-12-22T14:43:06.407Z,11.08
2022-12-22T14:45:32.798Z,11.10
2022-12-22T14:47:59.245Z,11.09
2022-12-22T14:50:25.569Z,11.08
2022-12-22T14:52:51.987Z,11.01
2022-12-22T14:55:18.290Z,11.12
2022-12-22T14:57:44.626Z,11.06
2022-12-22T15:00:10.933Z,11.03
2022-12-22T15:02:40.053Z,11.03
2022-12-22T15:05:07.462Z,11.02
2022-12-22T15:08:05.191Z,10.99
2022-12-22T15:10:20.574Z,11.02
2022-12-22T15:12:47.220Z,10.99
2022-12-22T15:15:13.959Z,10.96
2022-12-22T15:17:40.284Z,10.93
2022-12-22T15:20:07.222Z,11.00
2022-12-22T15:22:33.588Z,11.05
2022-12-22T15:24:59.986Z,11.08
2022-12-22T15:27:26.322Z,11.10
2022-12-22T15:29:52.628Z,11.09
2022-12-22T15:32:18.958Z,10.89
2022-12-22T15:34:45.348Z,10.83
2022-12-22T15:37:11.713Z,10.72
2022-12-22T15:39:38.021Z,10.60
2022-12-22T15:42:04.376Z,10.49
2022-12-22T15:44:36.783Z,10.49
2022-12-22T15:47:05.036Z,10.24
2022-12-22T15:49:31.413Z,10.10
2022-12-22T15:51:57.762Z,10.03
2022-12-22T15:54:24.069Z,9.93
2022-12-22T15:56:51.075Z,9.84
2022-12-22T15:59:19.255Z,9.75
2022-12-22T16:01:45.714Z,9.71
2022-12-22T16:04:13.439Z,9.65
2022-12-22T16:06:39.801Z,9.60
2022-12-22T16:09:06.119Z,9.55
2022-12-22T16:11:32.447Z,9.52
2022-12-22T16:13:58.800Z,9.47
2022-12-22T16:16:25.151Z,9.46
2022-12-22T16:18:52.186Z,9.37
2022-12-22T16:21:18.556Z,9.38
2022-12-22T16:23:44.875Z,9.30
2022-12-22T16:26:11.216Z,9.29
2022-12-22T16:28:38.315Z,9.30
2022-12-22T16:31:04.651Z,9.28
2022-12-22T16:33:31.002Z,9.24
2022-12-22T16:35:57.341Z,9.19
2022-12-22T16:38:23.691Z,9.17
2022-12-22T16:40:50.217Z,9.21
2022-12-22T16:46:00.750Z,9.13
2022-12-22T16:48:27.106Z,9.09
2022-12-22T16:50:53.446Z,9.06
2022-12-22T16:53:19.939Z,9.09
2022-12-22T16:55:46.677Z,9.02
2022-12-22T16:58:14.129Z,9.00
2022-12-22T17:00:40.676Z,9.06
2022-12-22T17:03:07.132Z,8.95
2022-12-22T17:05:36.326Z,8.99
2022-12-22T17:08:06.744Z,8.97
2022-12-22T17:10:33.103Z,8.95
2022-12-22T17:12:59.422Z,8.89
2022-12-22T17:15:25.783Z,8.88
2022-12-22T17:17:52.177Z,8.92
2022-12-22T17:20:18.532Z,8.81
2022-12-22T17:22:44.850Z,8.76
2022-12-22T17:25:11.185Z,8.81
2022-12-22T17:27:37.493Z,8.75
2022-12-22T17:30:03.855Z,8.75
2022-12-22T17:32:30.192Z,8.75
2022-12-22T17:34:56.529Z,8.71
2022-12-22T17:37:22.871Z,8.67
2022-12-22T17:39:49.251Z,8.71
2022-12-22T17:42:15.634Z,8.72
2022-12-22T17:44:42.044Z,8.75
2022-12-22T17:47:08.445Z,8.69
2022-12-22T17:49:34.817Z,8.68
2022-12-22T17:52:01.120Z,8.68
2022-12-22T17:54:27.536Z,8.72
2022-12-22T17:56:53.970Z,8.71
2022-12-22T17:59:20.359Z,8.70
2022-12-22T18:01:46.789Z,8.74
2022-12-22T18:04:13.769Z,8.71
2022-12-22T18:06:40.295Z,8.75
2022-12-22T18:09:06.610Z,8.72
2022-12-22T18:11:32.990Z,8.71
2022-12-22T18:13:59.441Z,8.64
2022-12-22T18:16:25.856Z,8.55
2022-12-22T18:18:52.455Z,8.53
2022-12-22T18:21:18.833Z,8.53
2022-12-22T18:23:50.000Z,8.56
2022-12-22T18:26:17.119Z,8.60
2022-12-22T18:28:43.495Z,8.62
2022-12-22T18:31:09.812Z,8.60
2022-12-22T18:33:36.237Z,8.61
2022-12-22T18:36:02.720Z,8.61
2022-12-22T18:38:29.086Z,8.63
2022-12-22T18:40:55.624Z,8.64
2022-12-22T18:43:21.932Z,8.64
2022-12-22T18:45:48.285Z,8.62
2022-12-22T18:48:14.627Z,8.43
2022-12-22T18:50:41.124Z,8.50
2022-12-22T18:53:07.502Z,8.46
2022-12-22T18:55:33.829Z,8.46
2022-12-22T18:58:00.166Z,8.43
2022-12-22T19:00:26.485Z,8.28
2022-12-22T19:02:52.966Z,8.28
2022-12-22T19:05:19.394Z,8.20
2022-12-22T19:07:45.765Z,8.19
2022-12-22T19:10:12.065Z,8.07
2022-12-22T19:12:38.393Z,8.03
2022-12-22T19:15:04.784Z,7.94
2022-12-22T19:17:31.097Z,7.78
2022-12-22T19:19:57.450Z,7.77
2022-12-22T19:22:23.768Z,7.75
2022-12-22T19:24:51.639Z,7.66
2022-12-22T19:27:18.091Z,7.65
2022-12-22T19:29:45.167Z,7.58
2022-12-22T19:32:12.538Z,7.56
2022-12-22T19:34:38.953Z,7.48
2022-12-22T19:37:05.310Z,7.37
2022-12-22T19:39:31.643Z,7.34
2022-12-22T19:41:57.954Z,7.29
2022-12-22T19:44:24.401Z,7.32
2022-12-22T19:46:50.775Z,7.25
2022-12-22T19:49:17.133Z,7.19
2022-12-22T19:51:43.680Z,7.26
2022-12-22T19:54:10.093Z,7.19
2022-12-22T19:56:36.486Z,7.23
2022-12-22T19:59:02.798Z,7.18
2022-12-22T20:01:29.279Z,7.20
2022-12-22T20:03:56.321Z,7.29
2022-12-22T20:06:22.633Z,7.31
2022-12-22T20:08:48.953Z,7.35
2022-12-22T20:11:15.283Z,7.32
2022-12-22T20:13:41.831Z,7.30
2022-12-22T20:16:08.274Z,7.07
2022-12-22T20:18:34.591Z,7.04
2022-12-22T20:21:00.921Z,6.92
2022-12-22T20:23:27.341Z,6.84
2022-12-22T20:25:53.674Z,6.75
2022-12-22T20:28:20.013Z,6.83
2022-12-22T20:30:46.387Z,6.84
2022-12-22T20:33:12.782Z,6.80
2022-12-22T20:35:39.161Z,6.86
2022-12-22T20:38:05.645Z,6.91
2022-12-22T20:40:32.063Z,6.92
2022-12-22T20:42:58.372Z,6.94
2022-12-22T20:45:24.703Z,6.96
2022-12-22T20:47:51.020Z,7.08
2022-12-22T20:50:17.371Z,7.10
2022-12-22T20:52:43.680Z,7.07
2022-12-22T20:55:10.006Z,7.12
2022-12-22T20:57:36.321Z,7.21
2022-12-22T21:00:02.613Z,7.11
2022-12-22T21:02:29.324Z,7.18
2022-12-22T21:04:55.951Z,7.27
2022-12-22T21:07:22.324Z,7.33
2022-12-22T21:09:48.713Z,7.38
2022-12-22T21:12:15.112Z,7.42
2022-12-22T21:14:41.434Z,7.37
2022-12-22T21:17:07.827Z,7.32
2022-12-22T21:19:34.144Z,7.36
2022-12-22T21:22:00.485Z,7.32
2022-12-22T21:24:26.835Z,7.39
2022-12-22T21:26:53.199Z,7.40
2022-12-22T21:29:19.539Z,7.38
2022-12-22T21:31:45.880Z,7.29
2022-12-22T21:34:12.223Z,7.21
2022-12-22T21:36:38.569Z,7.16
2022-12-22T21:39:04.980Z,7.04
2022-12-22T21:41:50.091Z,6.84
2022-12-22T21:44:16.475Z,6.76
2022-12-22T21:46:42.985Z,6.72
2022-12-22T21:49:09.383Z,6.73
2022-12-22T21:51:35.746Z,6.79
2022-12-22T21:54:02.069Z,6.77
2022-12-22T21:56:28.361Z,6.74
2022-12-22T21:58:58.849Z,6.77
2022-12-22T22:01:28.312Z,6.79
2022-12-22T22:03:54.824Z,6.83
2022-12-22T22:06:21.214Z,6.85
2022-12-22T22:08:47.545Z,6.79
2022-12-22T22:11:13.853Z,6.82
2022-12-22T22:13:40.298Z,6.86
2022-12-22T22:16:06.637Z,6.87
2022-12-22T22:18:33.014Z,6.89
2022-12-22T22:20:59.330Z,6.88
2022-12-22T22:23:25.680Z,6.87
2022-12-22T22:25:51.989Z,6.84
2022-12-22T22:28:18.306Z,6.97
2022-12-22T22:30:44.719Z,6.94
2022-12-22T22:33:11.095Z,6.91
2022-12-22T22:35:37.422Z,6.86
2022-12-22T22:38:03.771Z,6.89
2022-12-22T22:40:30.080Z,6.88
2022-12-22T22:42:57.098Z,6.84
2022-12-22T22:45:24.284Z,6.84
2022-12-22T22:47:51.004Z,6.89
2022-12-22T22:50:19.034Z,6.83
2022-12-22T22:52:45.367Z,6.87
2022-12-22T22:55:12.835Z,6.86
2022-12-22T22:57:39.153Z,6.88
2022-12-22T23:00:05.488Z,6.85
2022-12-22T23:02:31.959Z,6.90
2022-12-22T23:04:58.482Z,6.89
2022-12-22T23:07:24.823Z,6.95
2022-12-22T23:09:51.144Z,6.94
2022-12-22T23:12:17.510Z,6.98
2022-12-22T23:14:43.817Z,6.99
2022-12-22T23:17:10.146Z,6.98
2022-12-22T23:19:36.464Z,7.00
2022-12-22T23:22:02.787Z,6.92
2022-12-22T23:24:29.102Z,6.98
2022-12-22T23:26:55.508Z,6.92
2022-12-22T23:29:21.821Z,6.78
2022-12-22T23:31:48.214Z,6.85
2022-12-22T23:34:14.607Z,6.81
2022-12-22T23:36:40.966Z,6.74
2022-12-22T23:39:07.276Z,6.74
2022-12-22T23:41:33.597Z,6.77
2022-12-22T23:43:59.918Z,6.72
2022-12-22T23:46:26.367Z,6.74
2022-12-22T23:48:53.137Z,6.61
2022-12-22T23:51:19.468Z,6.63
2022-12-22T23:53:45.828Z,6.58
2022-12-22T23:56:12.149Z,6.53
2022-12-22T23:58:38.502Z,6.60
